Latest Weather Observations for Lochington

IDQ60801

Issued at 12:02 pm EST Saturday 30 May 2015 (issued every 30 minutes, with the page automatically refreshed every 10 minutes)

About weather observations | Map of weather stations | Latest weather observations for QLD | Other Formats
Station Details ID: 035139 Name: LOCHINGTON Lat: -23.94 Lon: 147.53 Height: 267.19 m
Data from the previous 72 hours. | See also: Recent months at Lochington
Date/Time
EST
Temp
°C
App
Temp
°C
Dew
Point
Rel
Hum
%
Delta-T
°C
Wind Press
QNH
hPa
Press
MSL
hPa
Rain
since 9 am
mm
Dir
 
Spd
km/h
Gust
km/h
Spd
kts
Gust
kts
30/12:00pm 25.9 26.0 14.4 49 6.9 NNE 7 19 4 10 1021.1 1020.3 0.0
30/11:30am 24.0 23.6 14.1 54 5.9 NNE 9 15 5 8 1021.9 1021.1 0.0
30/11:00am 23.7 23.9 14.7 57 5.4 NNE 7 15 4 8 1022.5 1021.8 0.0
30/10:30am 23.5 24.0 15.5 60 4.9 N 7 11 4 6 1023.0 1022.3 0.0
30/10:00am 21.4 21.6 15.7 70 3.4 NE 9 13 5 7 1023.3 1022.6 0.0
30/09:30am 20.2 20.4 15.8 76 2.7 ENE 9 15 5 8 1023.6 1022.9 0.0
30/09:00am 18.1 18.4 14.9 81 1.9 ENE 7 11 4 6 1023.8 1023.1 0.0
30/08:30am 16.1 17.0 13.0 82 1.7 CALM 0 2 0 1 1023.4 1022.7 0.0
30/08:00am 14.1 14.3 11.8 86 1.2 WSW 2 6 1 3 1023.2 1022.5 0.0
30/07:30am 12.1 11.5 10.5 90 0.8 NW 4 6 2 3 1023.2 1022.5 0.0
30/07:00am 11.0 10.1 9.4 90 0.8 NW 4 4 2 2 1023.0 1022.3 0.0
30/06:30am 11.0 10.5 9.3 89 0.9 W 2 4 1 2 1022.8 1022.1 0.0
30/06:00am 10.7 10.1 8.8 88 0.9 WNW 2 4 1 2 1022.5 1021.8 0.0
30/05:30am 10.8 10.1 8.7 87 1.1 WNW 2 4 1 2 1022.0 1021.3 0.0
30/05:00am 11.3 11.0 8.7 84 1.3 CALM 0 4 0 2 1021.9 1021.1 0.0
30/04:30am 11.6 11.3 8.8 83 1.4 CALM 0 0 0 0 1021.8 1021.0 0.0
30/04:00am 11.7 11.4 8.7 82 1.5 CALM 0 0 0 0 1021.7 1020.9 0.0
30/03:30am 12.2 12.1 9.4 83 1.4 CALM 0 0 0 0 1021.6 1020.8 0.0
30/03:00am 12.9 12.9 9.9 82 1.6 CALM 0 0 0 0 1021.5 1020.7 0.0
30/02:30am 12.9 12.8 9.5 80 1.8 CALM 0 0 0 0 1021.4 1020.6 0.0
30/02:00am 13.5 13.2 8.8 73 2.4 CALM 0 0 0 0 1021.5 1020.7 0.0
30/01:30am 14.0 13.4 8.8 71 2.7 SW 2 4 1 2 1021.6 1020.8 0.0
30/01:00am 16.2 15.3 11.4 73 2.6 E 7 9 4 5 1021.7 1020.9 0.0
30/12:30am 15.1 14.1 8.8 66 3.3 E 4 6 2 3 1021.9 1021.1 0.0
30/12:00am 17.1 16.4 12.0 72 2.8 E 7 11 4 6 1021.8 1021.0 0.0
 
Date/Time
EST
Temp
°C
App
Temp
°C
Dew
Point
Rel
Hum
%
Delta-T
°C
Wind Press
QNH
hPa
Press
MSL
hPa
Rain
since 9 am
mm
Dir
 
Spd
km/h
Gust
km/h
Spd
kts
Gust
kts
29/11:30pm 14.5 14.2 10.1 75 2.3 E 2 4 1 2 1022.1 1021.4 0.0
29/11:00pm 14.8 14.1 10.0 73 2.5 E 4 4 2 2 1022.3 1021.6 0.0
29/10:30pm 15.4 15.6 10.6 73 2.6 CALM 0 2 0 1 1022.5 1021.8 0.0
29/10:00pm 16.4 16.7 10.9 70 3.0 CALM 0 0 0 0 1022.5 1021.8 0.0
29/09:30pm 16.6 16.7 10.2 66 3.4 CALM 0 0 0 0 1022.3 1021.6 0.0
29/09:00pm 17.6 17.5 10.7 64 3.7 ENE 2 4 1 2 1022.4 1021.7 0.0
29/08:30pm 19.8 19.2 11.6 59 4.6 NE 6 7 3 4 1022.1 1021.4 0.0
29/08:00pm 20.7 20.1 11.6 56 5.1 ENE 6 9 3 5 1022.0 1021.3 0.0
29/07:30pm 20.5 19.5 10.3 52 5.6 ENE 6 9 3 5 1021.7 1020.9 0.0
29/07:00pm 22.4 21.3 11.8 51 6.0 NE 9 11 5 6 1021.4 1020.6 0.0
29/06:30pm 22.5 21.4 11.9 51 6.0 NE 9 11 5 6 1021.2 1020.4 0.0
29/06:00pm 23.0 22.3 11.4 48 6.5 ENE 6 7 3 4 1020.8 1020.0 0.0
29/05:30pm 23.9 23.1 10.9 44 7.3 ENE 6 9 3 5 1020.5 1019.7 0.0
29/05:00pm 25.7 25.0 11.5 41 8.1 ENE 6 9 3 5 1020.3 1019.5 0.0
29/04:30pm 26.6 26.1 11.9 40 8.5 NE 6 9 3 5 1020.2 1019.4 0.0
29/04:00pm 26.5 25.7 11.8 40 8.5 NE 7 15 4 8 1020.2 1019.4 0.0
29/03:30pm 27.0 26.0 12.3 40 8.6 ENE 9 19 5 10 1019.9 1019.2 0.0
29/03:00pm 26.6 25.2 12.3 41 8.3 ENE 11 20 6 11 1020.1 1019.3 0.0
29/02:30pm 26.4 25.5 12.5 42 8.1 ENE 9 19 5 10 1020.4 1019.6 0.0
29/02:00pm 26.4 25.9 12.5 42 8.1 ESE 7 20 4 11 1020.6 1019.8 0.0
29/01:30pm 26.7 26.2 12.7 42 8.2 E 7 17 4 9 1020.9 1020.1 0.0
29/01:00pm 25.1 24.2 12.7 46 7.2 ENE 9 20 5 11 1021.3 1020.5 0.0
29/12:30pm 25.3 24.3 13.5 48 7.0 NNE 11 22 6 12 1021.8 1021.0 0.0
29/12:00pm 24.8 23.5 13.7 50 6.6 NNE 13 20 7 11 1022.7 1022.0 0.0
29/11:30am 23.8 22.2 13.9 54 5.9 NNE 15 26 8 14 1023.2 1022.5 0.0
29/11:00am 22.4 21.7 14.3 60 4.8 NE 11 15 6 8 1023.5 1022.8 0.0
29/10:30am 22.1 22.5 15.2 65 4.2 NE 7 15 4 8 1024.3 1023.5 0.0
29/10:00am 21.2 21.6 15.3 69 3.5 ENE 7 11 4 6 1024.7 1023.9 0.0
29/09:30am 19.6 19.8 14.8 74 2.8 E 7 13 4 7 1025.0 1024.2 0.0
29/09:00am 18.5 18.3 14.8 79 2.2 ENE 9 15 5 8 1024.9 1024.1 0.0
29/08:30am 17.6 18.1 12.7 73 2.8 SSE 2 6 1 3 1024.7 1023.9 0.0
29/08:00am 14.2 14.3 10.0 76 2.2 CALM 0 0 0 0 1024.5 1023.7 0.0
29/07:30am 11.4 10.8 9.0 85 1.2 WNW 2 2 1 1 1024.3 1023.5 0.0
29/07:00am 9.6 8.2 7.2 85 1.1 W 4 4 2 2 1023.7 1023.0 0.0
29/06:30am 9.8 8.8 7.2 84 1.2 W 2 4 1 2 1023.3 1022.6 0.0
29/06:00am 10.2 9.2 7.3 82 1.4 NW 2 2 1 1 1023.0 1022.3 0.0
29/05:30am 11.0 10.1 7.7 80 1.6 NW 2 2 1 1 1022.6 1021.9 0.0
29/05:00am 11.6 10.6 8.8 83 1.4 NNW 4 4 2 2 1022.6 1021.9 0.0
29/04:30am 11.1 9.9 8.0 81 1.5 WNW 4 6 2 3 1022.7 1022.0 0.0
29/04:00am 11.1 10.2 7.6 79 1.7 WNW 2 4 1 2 1022.5 1021.8 0.0
29/03:30am 11.8 11.0 8.3 79 1.7 NNE 2 4 1 2 1022.2 1021.5 0.0
29/03:00am 11.7 10.4 7.8 77 1.9 E 4 6 2 3 1022.1 1021.4 0.0
29/02:30am 12.3 10.6 6.1 66 3.0 E 4 7 2 4 1022.1 1021.4 0.0
29/02:00am 14.9 13.6 11.3 79 1.9 ENE 9 11 5 6 1022.3 1021.6 0.0
29/01:30am 12.8 11.6 7.9 72 2.4 E 4 6 2 3 1022.7 1022.0 0.0
29/01:00am 12.7 11.8 7.8 72 2.4 NNE 2 4 1 2 1022.4 1021.7 0.0
29/12:30am 13.6 12.6 7.2 65 3.2 E 2 6 1 3 1022.5 1021.8 0.0
29/12:00am 16.3 15.1 9.5 64 3.6 E 6 7 3 4 1022.5 1021.8 0.0
 
Date/Time
EST
Temp
°C
App
Temp
°C
Dew
Point
Rel
Hum
%
Delta-T
°C
Wind Press
QNH
hPa
Press
MSL
hPa
Rain
since 9 am
mm
Dir
 
Spd
km/h
Gust
km/h
Spd
kts
Gust
kts
28/11:30pm 15.4 13.8 8.2 62 3.7 ENE 6 7 3 4 1022.4 1021.7 0.0
28/11:00pm 13.9 13.1 8.3 69 2.8 NE 2 6 1 3 1022.5 1021.8 0.0
28/10:30pm 14.0 13.1 7.8 66 3.1 E 2 4 1 2 1022.3 1021.6 0.0
28/10:00pm 16.0 14.7 7.7 58 4.2 E 4 6 2 3 1022.4 1021.7 0.0
28/09:30pm 17.1 15.8 9.3 60 4.1 ENE 6 6 3 3 1022.4 1021.7 0.0
28/09:00pm 17.0 16.8 8.9 59 4.2 CALM 0 0 0 0 1022.1 1021.4 0.0
28/08:30pm 17.2 16.5 8.6 57 4.5 ESE 2 2 1 1 1022.0 1021.3 0.0
28/08:00pm 18.3 17.6 8.6 53 5.1 E 2 4 1 2 1021.8 1021.0 0.0
28/07:30pm 20.4 18.5 9.0 48 6.1 NE 9 11 5 6 1021.5 1020.7 0.0
28/07:00pm 21.7 19.9 9.3 45 6.7 ENE 9 13 5 7 1021.1 1020.3 0.0
28/06:30pm 22.4 20.9 9.2 43 7.2 ENE 7 9 4 5 1021.0 1020.2 0.0
28/06:00pm 22.7 20.8 9.1 42 7.4 ENE 9 11 5 6 1020.5 1019.7 0.0
28/05:30pm 23.7 22.1 8.9 39 8.0 ENE 7 9 4 5 1020.5 1019.7 0.0
28/05:00pm 25.3 23.5 9.6 37 8.7 ENE 9 13 5 7 1020.3 1019.5 0.0
28/04:30pm 26.1 24.3 9.5 35 9.2 ENE 9 19 5 10 1019.5 1018.8 0.0
28/04:00pm 26.4 24.4 10.1 36 9.2 ENE 11 20 6 11 1019.4 1018.7 0.0
28/03:30pm 26.7 25.2 10.4 36 9.2 E 9 19 5 10 1019.4 1018.7 0.0
28/03:00pm 26.8 25.4 10.9 37 9.1 E 9 20 5 11 1019.4 1018.7 0.0
28/02:30pm 26.8 24.9 10.5 36 9.3 NE 11 19 6 10 1019.7 1019.0 0.0
28/02:00pm 25.9 24.4 10.5 38 8.7 E 9 17 5 9 1020.3 1019.5 0.0
28/01:30pm 26.6 25.3 11.1 38 8.9 ENE 9 17 5 9 1020.5 1019.7 0.0
28/01:00pm 25.9 24.3 11.6 40 8.2 NE 11 19 6 10 1020.9 1020.1 0.0
28/12:30pm 25.1 24.2 12.7 46 7.2 NE 9 17 5 9 1021.7 1020.9 0.0
28/12:00pm 24.4 24.2 13.6 51 6.4 ESE 7 17 4 9 1022.4 1021.7 0.0
28/11:30am 23.1 22.4 14.4 58 5.2 E 11 15 6 8 1022.9 1022.2 0.0
28/11:00am 23.1 23.2 14.4 58 5.2 NE 7 13 4 7 1023.3 1022.6 0.0
28/10:30am 21.4 21.0 14.1 63 4.3 NNE 9 17 5 9 1023.9 1023.2 0.0
28/10:00am 21.0 21.3 14.9 68 3.6 NE 7 11 4 6 1024.4 1023.6 0.0
28/09:30am 20.1 20.0 14.9 72 3.1 ENE 9 13 5 7 1024.2 1023.4 0.0
28/09:00am 18.5 18.8 15.0 80 2.1 E 7 11 4 6 1024.3 1023.5 0.0
28/08:30am 15.4 15.9 11.6 78 2.1 CALM 0 0 0 0 1023.9 1023.2 0.0
28/08:00am 13.0 12.8 9.1 77 2.0 CALM 0 0 0 0 1023.3 1022.6 0.0
28/07:30am 10.6 10.1 7.7 82 1.4 CALM 0 0 0 0 1022.9 1022.2 0.0
28/07:00am 10.0 8.6 7.3 83 1.3 WNW 4 6 2 3 1022.7 1022.0 0.0
28/06:30am 9.8 8.4 7.1 83 1.3 WNW 4 4 2 2 1022.4 1021.7 0.0
28/06:00am 10.0 9.3 6.9 81 1.5 CALM 0 0 0 0 1021.9 1021.1 0.0
28/05:30am 10.1 9.5 7.2 82 1.4 CALM 0 0 0 0 1021.8 1021.0 0.0
28/05:00am 10.0 9.3 6.9 81 1.5 CALM 0 0 0 0 1021.6 1020.8 0.0
28/04:30am 10.6 10.0 7.5 81 1.5 CALM 0 0 0 0 1021.4 1020.6 0.0
28/04:00am 10.4 9.8 7.3 81 1.5 CALM 0 0 0 0 1021.5 1020.7 0.0
28/03:30am 11.0 10.4 7.3 78 1.8 CALM 0 0 0 0 1021.4 1020.6 0.0
28/03:00am 11.0 10.4 7.3 78 1.8 CALM 0 0 0 0 1021.3 1020.5 0.0
28/02:30am 11.0 10.3 6.9 76 2.0 CALM 0 0 0 0 1021.3 1020.5 0.0
28/02:00am 11.9 11.3 7.6 75 2.1 CALM 0 0 0 0 1021.3 1020.5 0.0
28/01:30am 12.1 11.6 7.8 75 2.1 CALM 0 0 0 0 1021.5 1020.7 0.0
28/01:00am 12.1 11.1 7.4 73 2.3 WNW 2 4 1 2 1021.8 1021.0 0.0
28/12:30am 13.3 12.4 7.7 69 2.8 E 2 6 1 3 1021.6 1020.8 0.0
28/12:00am 12.8 11.2 7.9 72 2.4 WNW 6 6 3 3 1021.5 1020.7 0.0
 
Date/Time
EST
Temp
°C
App
Temp
°C
Dew
Point
Rel
Hum
%
Delta-T
°C
Wind Press
QNH
hPa
Press
MSL
hPa
Rain
since 9 am
mm
Dir
 
Spd
km/h
Gust
km/h
Spd
kts
Gust
kts
27/11:30pm 13.3 12.6 8.6 73 2.4 NW 2 6 1 3 1021.5 1020.7 0.0
27/11:00pm 13.2 12.7 7.9 70 2.6 CALM 0 0 0 0 1021.8 1021.0 0.0
27/10:30pm 13.8 13.2 8.8 72 2.6 W 2 4 1 2 1022.1 1021.4 0.0
27/10:00pm 14.2 12.7 8.6 69 2.8 WNW 6 6 3 3 1021.7 1020.9 0.0
27/09:30pm 14.7 13.6 8.4 66 3.2 WNW 4 6 2 3 1021.3 1020.5 0.0
27/09:00pm 15.9 15.7 8.9 63 3.6 CALM 0 0 0 0 1021.2 1020.4 0.0
27/08:30pm 16.6 16.2 8.3 58 4.3 CALM 0 0 0 0 1021.4 1020.6 0.0
27/08:00pm 17.8 17.0 8.1 53 5.0 ENE 2 6 1 3 1021.2 1020.4 0.0
27/07:30pm 20.7 19.4 9.9 50 5.9 NE 7 9 4 5 1020.8 1020.0 0.0
27/07:00pm 21.3 20.2 9.9 48 6.2 ENE 6 9 3 5 1020.4 1019.6 0.0
27/06:30pm 21.6 20.8 9.8 47 6.4 ESE 4 6 2 3 1020.4 1019.6 0.0
27/06:00pm 22.7 21.6 9.8 44 7.1 ENE 6 7 3 4 1019.8 1019.1 0.0
27/05:30pm 23.4 22.5 9.4 41 7.7 E 4 6 2 3 1019.6 1018.9 0.0
27/05:00pm 25.0 24.1 9.3 37 8.6 E 4 6 2 3 1019.4 1018.7 0.0
27/04:30pm 25.4 24.2 9.7 37 8.7 ESE 6 11 3 6 1019.3 1018.6 0.0
27/04:00pm 25.9 25.2 10.1 37 8.9 S 4 6 2 3 1019.1 1018.4 0.0
27/03:30pm 24.6 24.6 9.7 39 8.3 CALM 0 2 0 1 1019.4 1018.7 0.0
27/03:00pm 25.1 23.9 9.4 37 8.7 NE 6 11 3 6 1019.7 1019.0 0.0
27/02:30pm 26.0 24.9 9.8 36 9.1 ESE 6 9 3 5 1020.1 1019.3 0.0
27/02:00pm 26.1 24.9 10.3 37 8.9 SSW 7 17 4 9 1020.4 1019.6 0.0
27/01:30pm 25.4 24.2 10.4 39 8.4 NNW 7 15 4 8 1020.6 1019.8 0.0
27/01:00pm 24.8 23.7 10.7 41 7.9 ESE 7 13 4 7 1021.5 1020.7 0.0
27/12:30pm 24.1 22.9 10.4 42 7.7 ESE 7 15 4 8 1021.9 1021.1 0.0

Other Formats:

Comma delimited format used in spreadsheet applications
http://www.bom.gov.au/fwo/IDQ60801/IDQ60801.94399.axf

JavaScript Object Notation format (JSON) in row-major order
http://www.bom.gov.au/fwo/IDQ60801/IDQ60801.94399.json